Time;durP1;ratioP1;P1;durP2;ratioP2;P2;SDS_P1;SDS_P2;PMS_P1;PMS_P2;Temp;Humidity;BMP_temperature;BMP_pressure;BME280_temperature;BME280_humidity;BME280_pressure;Samples;Min_cycle;Max_cycle;Signal;HPM_P1;HPM_P2
2023/02/05 00:02:01;;;;;;;14.30;5.80;;;;;;;-2.84;82.14;102142.81;131168;1285;24412;-82
2023/02/05 00:05:02;;;;;;;;;;;;;;;-2.84;82.32;102144.90;130947;1286;25258;-81
2023/02/05 00:08:02;;;;;;;14.70;6.50;;;;;;;-2.83;82.24;102144.34;130837;1289;25304;-81
2023/02/05 00:11:08;;;;;;;14.90;5.70;;;;;;;-2.82;82.32;102142.77;130961;1286;22753;-80
2023/02/05 00:14:09;;;;;;;12.60;4.80;;;;;;;-2.82;82.15;102139.83;131077;1294;23924;-81
2023/02/05 00:17:10;;;;;;;14.10;5.20;;;;;;;-2.83;82.06;102141.39;131083;1292;23899;-82
2023/02/05 00:20:10;;;;;;;10.20;4.70;;;;;;;-2.81;82.25;102145.02;131088;1294;22691;-83
2023/02/05 00:23:11;;;;;;;13.10;6.00;;;;;;;-2.80;82.35;102146.89;131028;1286;25536;-80
2023/02/05 00:26:15;;;;;;;14.00;5.90;;;;;;;-2.79;82.17;102146.17;131146;1292;22653;-81
2023/02/05 00:29:16;;;;;;;12.20;4.80;;;;;;;-2.78;82.40;102149.45;130902;1286;22778;-82
2023/02/05 00:32:17;;;;;;;16.10;6.90;;;;;;;-2.79;82.16;102145.48;131235;1285;22557;-83
2023/02/05 00:35:17;;;;;;;9.10;4.80;;;;;;;-2.78;82.20;102151.36;131156;1290;23351;-82
2023/02/05 00:38:18;;;;;;;11.10;5.40;;;;;;;-2.79;82.13;102153.79;130874;1289;25516;-78
2023/02/05 00:41:18;;;;;;;13.50;5.50;;;;;;;-2.80;82.23;102153.80;131106;1289;25440;-81
2023/02/05 00:44:19;;;;;;;;;;;;;;;-2.79;82.11;102149.98;130859;1288;24259;-81
2023/02/05 00:47:20;;;;;;;12.90;5.10;;;;;;;-2.79;82.24;102148.08;131086;1289;25335;-81
2023/02/05 00:50:20;;;;;;;10.10;4.60;;;;;;;-2.80;82.29;102146.36;131069;1285;25400;-81
2023/02/05 00:53:22;;;;;;;15.50;4.90;;;;;;;-2.81;82.15;102144.30;131130;1292;23908;-80
2023/02/05 00:56:23;;;;;;;13.00;5.90;;;;;;;-2.81;82.17;102151.77;131005;1292;25246;-81
2023/02/05 00:59:24;;;;;;;10.90;5.00;;;;;;;-2.82;82.21;102153.34;131052;1285;23382;-81
2023/02/05 01:02:24;;;;;;;11.30;5.60;;;;;;;-2.83;82.50;102158.73;131154;1293;23425;-80
2023/02/05 01:05:29;;;;;;;14.30;4.90;;;;;;;-2.83;82.81;102161.15;131094;1288;25312;-82
2023/02/05 01:08:30;;;;;;;12.80;5.30;;;;;;;-2.83;82.68;102161.83;130876;1288;27428;-80
2023/02/05 01:11:30;;;;;;;10.70;4.90;;;;;;;-2.83;82.57;102167.56;131028;1292;22556;-82
2023/02/05 01:14:31;;;;;;;;;;;;;;;-2.84;82.61;102169.84;131085;1292;22652;-82
2023/02/05 01:17:32;;;;;;;11.70;5.30;;;;;;;-2.86;82.70;102164.83;131267;1286;24389;-82
2023/02/05 01:20:38;;;;;;;11.60;5.30;;;;;;;-2.86;82.40;102161.89;131317;1288;22560;-81
2023/02/05 01:23:38;;;;;;;13.00;5.80;;;;;;;-2.86;82.37;102161.55;131016;1292;22556;-81
2023/02/05 01:26:39;;;;;;;8.40;4.90;;;;;;;-2.84;82.47;102164.30;131139;1289;24278;-80
2023/02/05 01:29:41;;;;;;;10.30;5.10;;;;;;;-2.84;82.19;102161.70;131239;1289;22590;-81
2023/02/05 01:32:42;;;;;;;10.20;6.10;;;;;;;-2.84;82.43;102160.66;131100;1282;25558;-79
2023/02/05 01:35:43;;;;;;;13.70;6.10;;;;;;;-2.83;82.38;102165.84;131037;1292;25367;-81
2023/02/05 01:38:44;;;;;;;11.60;5.60;;;;;;;-2.84;82.54;102165.67;131515;1293;25252;-80
2023/02/05 01:41:46;;;;;;;10.30;5.80;;;;;;;-2.83;82.46;102162.02;131103;1292;22784;-80
2023/02/05 01:45:20;;;;;;;13.60;6.00;;;;;;;-2.83;82.30;102160.97;131133;1293;22698;-81
2023/02/05 01:48:26;;;;;;;10.00;5.20;;;;;;;-2.82;82.43;102164.59;131042;1295;24266;-80
2023/02/05 01:51:29;;;;;;;9.60;4.90;;;;;;;-2.81;82.70;102169.44;130912;1292;22571;-82
2023/02/05 01:54:37;;;;;;;11.10;5.30;;;;;;;-2.82;82.53;102173.06;131165;1293;22590;-80
2023/02/05 01:57:38;;;;;;;11.60;4.90;;;;;;;-2.83;82.55;102172.73;131015;1295;24358;-78
2023/02/05 02:00:39;;;;;;;13.80;5.30;;;;;;;-2.83;82.51;102165.13;130734;1292;22571;-80
2023/02/05 02:03:40;;;;;;;8.40;5.20;;;;;;;-2.83;81.92;102164.45;131091;1295;22546;-80
2023/02/05 02:06:40;;;;;;;8.60;4.10;;;;;;;-2.83;80.35;102167.22;130757;1292;23905;-83
2023/02/05 02:09:43;;;;;;;7.60;4.90;;;;;;;-2.81;80.33;102170.13;131038;1292;22557;-81
2023/02/05 02:12:46;;;;;;;12.80;5.00;;;;;;;-2.78;81.24;102166.77;131091;1292;24231;-80
2023/02/05 02:15:49;;;;;;;11.50;5.50;;;;;;;-2.77;81.27;102168.63;130835;1289;22706;-80
2023/02/05 02:18:51;;;;;;;12.70;4.80;;;;;;;-2.75;81.27;102167.74;130754;1295;22560;-80
2023/02/05 02:22:15;;;;;;;9.80;4.90;;;;;;;-2.75;80.78;102169.48;130936;1291;22646;-80
2023/02/05 02:25:28;;;;;;;7.00;4.60;;;;;;;-2.75;80.70;102173.27;131028;1289;24269;-80
2023/02/05 02:28:48;;;;;;;6.40;3.30;;;;;;;-2.76;79.26;102177.11;130885;1291;22572;-81
2023/02/05 02:32:02;;;;;;;5.70;3.50;;;;;;;-2.77;78.28;102178.52;130832;1288;22768;-81
2023/02/05 02:35:41;;;;;;;7.00;3.50;;;;;;;-2.77;78.40;102180.27;130886;1295;25289;-82
2023/02/05 02:38:52;;;;;;;7.70;3.90;;;;;;;-2.80;76.82;102177.89;130856;1286;22807;-81
2023/02/05 02:41:58;;;;;;;8.10;3.70;;;;;;;-2.84;76.43;102174.86;130665;1295;24295;-82
2023/02/05 02:45:06;;;;;;;4.10;3.10;;;;;;;-2.87;76.20;102170.42;130880;1289;23028;-81
2023/02/05 02:48:07;;;;;;;4.20;3.20;;;;;;;-2.92;77.05;102171.19;130933;1289;24394;-80
2023/02/05 02:51:11;;;;;;;6.30;3.50;;;;;;;-2.90;76.71;102173.42;130789;1292;22702;-80
2023/02/05 02:54:17;;;;;;;6.40;3.80;;;;;;;-2.89;76.81;102179.81;131086;1289;25444;-82
2023/02/05 02:57:22;;;;;;;6.50;3.90;;;;;;;-2.88;77.37;102183.40;131122;1292;22811;-79
2023/02/05 03:00:25;;;;;;;6.70;3.60;;;;;;;-2.87;76.65;102176.82;131120;1293;22746;-80
2023/02/05 03:03:29;;;;;;;7.40;3.90;;;;;;;-2.88;76.92;102178.73;130836;1294;22559;-82
2023/02/05 03:06:32;;;;;;;5.80;3.90;;;;;;;-2.88;76.75;102176.67;131092;1286;22595;-82
2023/02/05 03:10:00;;;;;;;5.70;3.90;;;;;;;-2.90;76.18;102170.30;130894;1295;23162;-82
2023/02/05 03:13:01;;;;;;;7.60;3.70;;;;;;;-2.94;76.56;102165.52;130774;1295;22638;-81
2023/02/05 03:16:04;;;;;;;7.80;4.00;;;;;;;-2.96;76.75;102167.46;131128;1288;23163;-81
2023/02/05 03:19:05;;;;;;;6.20;3.80;;;;;;;-2.98;76.39;102170.98;131101;1292;24243;-80
2023/02/05 03:22:05;;;;;;;5.00;3.80;;;;;;;-2.99;76.66;102171.16;131076;1295;25313;-82
2023/02/05 03:25:07;;;;;;;6.50;4.30;;;;;;;-3.00;76.70;102175.34;131019;1295;22784;-81
2023/02/05 03:28:09;;;;;;;5.70;3.80;;;;;;;-3.02;76.42;102177.64;131109;1289;23012;-81
2023/02/05 03:31:21;;;;;;;7.70;4.10;;;;;;;-3.03;76.68;102180.79;130884;1292;22791;-81
2023/02/05 03:34:37;;;;;;;6.80;4.10;;;;;;;-3.05;77.01;102178.54;131031;1288;22583;-82
2023/02/05 03:37:56;;;;;;;6.30;4.00;;;;;;;-3.06;77.20;102179.28;131013;1288;25394;-81
2023/02/05 03:41:01;;;;;;;5.50;4.20;;;;;;;-3.06;77.36;102179.28;131056;1293;22672;-81
2023/02/05 03:44:15;;;;;;;4.80;3.60;;;;;;;-3.09;77.42;102178.61;131051;1286;22797;-82
2023/02/05 03:47:53;;;;;;;5.60;3.60;;;;;;;-3.14;77.32;102180.98;130868;1296;22571;-81
2023/02/05 03:51:09;;;;;;;7.10;4.30;;;;;;;-3.20;77.64;102182.64;130853;1292;22668;-82
2023/02/05 03:54:20;;;;;;;8.30;4.60;;;;;;;-3.25;77.18;102187.41;130892;1295;22788;-82
2023/02/05 03:57:27;;;;;;;8.10;4.80;;;;;;;-3.30;77.46;102191.83;130952;1290;24378;-80
2023/02/05 04:00:29;;;;;;;8.20;4.90;;;;;;;-3.34;77.29;102195.71;131075;1293;22621;-81
2023/02/05 04:03:30;;;;;;;8.10;4.70;;;;;;;-3.40;77.18;102195.63;130860;1286;22757;-81
2023/02/05 04:06:32;;;;;;;9.30;4.80;;;;;;;-3.46;77.25;102194.70;131083;1292;22972;-81
2023/02/05 04:09:33;;;;;;;6.50;4.90;;;;;;;-3.50;77.24;102194.27;130869;1291;25326;-82
2023/02/05 04:12:33;;;;;;;10.30;5.10;;;;;;;-3.55;77.15;102190.70;131006;1289;25255;-82
2023/02/05 04:15:34;;;;;;;9.80;4.40;;;;;;;-3.59;77.24;102193.20;130949;1293;22653;-81
2023/02/05 04:18:35;;;;;;;8.40;5.80;;;;;;;-3.66;77.22;102196.23;131079;1292;22570;-81
2023/02/05 04:21:39;;;;;;;9.20;5.80;;;;;;;-3.71;77.34;102198.92;131062;1295;22576;-81
2023/02/05 04:24:39;;;;;;;8.20;5.90;;;;;;;-3.77;77.27;102195.05;130898;1290;24256;-80
2023/02/05 04:27:40;;;;;;;11.40;5.80;;;;;;;-3.84;77.50;102195.50;131118;1292;22658;-82
2023/02/05 04:30:40;;;;;;;7.70;5.50;;;;;;;-3.88;77.41;102199.36;131095;1293;25351;-81
2023/02/05 04:33:42;;;;;;;6.60;5.00;;;;;;;-3.93;77.40;102203.59;131003;1288;22788;-79
2023/02/05 04:36:45;;;;;;;8.40;5.40;;;;;;;-3.96;77.48;102203.46;131091;1288;22571;-79
2023/02/05 04:39:46;;;;;;;9.50;4.80;;;;;;;-3.96;77.68;102211.26;130987;1293;23025;-81
2023/02/05 04:42:46;;;;;;;;;;;;;;;-3.97;77.71;102212.83;130918;1286;22587;-81
2023/02/05 04:45:47;;;;;;;9.00;4.80;;;;;;;-4.00;77.93;102216.48;131057;1288;24393;-81
2023/02/05 04:48:48;;;;;;;10.50;6.10;;;;;;;-4.04;77.66;102215.17;131072;1288;25271;-81
2023/02/05 04:51:48;;;;;;;9.20;6.20;;;;;;;-4.07;78.02;102216.91;131062;1280;23560;-81
2023/02/05 04:54:49;;;;;;;12.50;6.70;;;;;;;-4.11;77.83;102220.79;131077;1288;22790;-81
2023/02/05 04:57:49;;;;;;;8.80;6.10;;;;;;;-4.14;78.11;102220.48;131038;1289;22588;-82
2023/02/05 05:00:50;;;;;;;12.80;6.70;;;;;;;-4.16;78.01;102225.01;131121;1286;23325;-82
2023/02/05 05:03:50;;;;;;;13.00;8.30;;;;;;;-4.17;78.14;102226.75;131031;1295;23942;-81
2023/02/05 05:06:51;;;;;;;17.30;8.50;;;;;;;-4.23;78.29;102229.78;131025;1289;22555;-81
2023/02/05 05:09:52;;;;;;;16.30;8.80;;;;;;;-4.29;78.20;102231.76;131091;1293;22592;-82
2023/02/05 05:12:52;;;;;;;16.40;9.40;;;;;;;-4.36;78.34;102229.61;131017;1289;23143;-79
2023/02/05 05:15:54;;;;;;;18.40;9.50;;;;;;;-4.38;78.35;102238.78;131038;1296;22639;-82
2023/02/05 05:18:55;;;;;;;14.00;7.80;;;;;;;-4.43;78.26;102241.27;131025;1292;22567;-80
2023/02/05 05:21:55;;;;;;;12.70;7.40;;;;;;;-4.46;78.27;102248.91;131030;1286;22745;-81
2023/02/05 05:24:56;;;;;;;11.20;6.20;;;;;;;-4.50;78.23;102255.01;131038;1295;25478;-81
2023/02/05 05:27:56;;;;;;;10.30;5.90;;;;;;;-4.56;78.19;102258.69;130855;1289;22638;-80
2023/02/05 05:30:57;;;;;;;10.40;5.80;;;;;;;-4.60;78.18;102259.61;131005;1289;136658;-81
2023/02/05 05:33:58;;;;;;;10.70;5.90;;;;;;;-4.66;78.34;102263.83;130998;1293;23879;-81
2023/02/05 05:36:58;;;;;;;9.80;4.80;;;;;;;-4.70;78.17;102268.88;131095;1292;22563;-80
2023/02/05 05:46:39;;;;;;;;;;;;;;;-4.80;78.39;102283.31;131056;1293;22548;-82
2023/02/05 05:49:39;;;;;;;10.00;6.30;;;;;;;-4.84;78.58;102280.25;131036;1289;23346;-81
2023/02/05 05:52:40;;;;;;;10.20;6.10;;;;;;;-4.90;78.30;102281.52;131033;1295;24294;-81
2023/02/05 05:55:40;;;;;;;11.30;6.80;;;;;;;-4.93;78.55;102291.73;131166;1282;22553;-82
2023/02/05 05:58:41;;;;;;;;;;;;;;;-4.97;78.58;102290.90;131257;1295;22598;-81
2023/02/05 06:01:42;;;;;;;9.30;6.10;;;;;;;-5.00;78.68;102293.52;131248;1292;25495;-81
2023/02/05 06:04:42;;;;;;;10.10;5.70;;;;;;;-5.03;78.55;102295.09;131133;1285;25366;-82
2023/02/05 06:07:43;;;;;;;10.30;6.40;;;;;;;-5.05;78.68;102290.80;131000;1288;24366;-81
2023/02/05 06:10:44;;;;;;;9.40;5.90;;;;;;;-5.10;78.73;102289.13;131028;1295;25292;-80
2023/02/05 06:13:45;;;;;;;12.00;5.90;;;;;;;-5.14;78.69;102290.54;130996;1292;22599;-80
2023/02/05 06:16:45;;;;;;;10.20;6.20;;;;;;;-5.17;78.71;102290.22;131022;1295;24378;-80
2023/02/05 06:19:48;;;;;;;13.50;6.60;;;;;;;-5.19;78.90;102294.20;131087;1287;22578;-81
2023/02/05 06:22:49;;;;;;;10.10;5.80;;;;;;;-5.20;78.78;102304.23;131057;1288;23905;-81
2023/02/05 06:25:49;;;;;;;10.80;6.20;;;;;;;-5.21;79.02;102307.69;131097;1291;24380;-79
2023/02/05 06:28:50;;;;;;;11.60;6.30;;;;;;;-5.22;78.87;102305.45;131015;1295;22667;-83
2023/02/05 06:31:51;;;;;;;9.70;6.60;;;;;;;-5.24;79.01;102302.02;131172;1289;22569;-81
2023/02/05 06:34:51;;;;;;;14.10;8.50;;;;;;;-5.24;79.27;102305.99;131233;1286;25586;-82
2023/02/05 06:37:52;;;;;;;18.50;9.10;;;;;;;-5.19;79.31;102312.33;130958;1292;22879;-82
2023/02/05 06:40:52;;;;;;;21.10;9.90;;;;;;;-5.12;79.27;102314.17;130899;1292;22604;-80
2023/02/05 06:43:53;;;;;;;15.00;8.50;;;;;;;-5.06;79.42;102321.70;130882;1292;24745;-80
2023/02/05 06:46:53;;;;;;;16.30;8.50;;;;;;;-4.95;79.44;102320.92;130687;1289;24375;-80
2023/02/05 06:49:54;;;;;;;16.90;9.20;;;;;;;-4.84;79.75;102325.30;130944;1286;25435;-81
2023/02/05 06:52:54;;;;;;;18.90;9.80;;;;;;;-4.64;79.82;102319.77;130740;1282;24257;-80
2023/02/05 06:55:58;;;;;;;13.40;7.80;;;;;;;-4.40;80.06;102321.75;130805;1291;22609;-81
2023/02/05 06:58:58;;;;;;;18.10;8.20;;;;;;;-4.16;80.21;102326.81;130904;1291;24360;-80
2023/02/05 07:01:59;;;;;;;24.10;10.40;;;;;;;-3.88;80.39;102333.21;131038;1286;22586;-80
2023/02/05 07:05:00;;;;;;;77.10;24.40;;;;;;;-3.67;79.94;102329.64;130921;1286;22571;-79
2023/02/05 07:08:02;;;;;;;63.20;20.90;;;;;;;-3.45;79.92;102335.73;130872;1280;24359;-78
2023/02/05 07:11:04;;;;;;;27.00;12.00;;;;;;;-3.24;79.80;102343.54;130565;1280;23022;-79
2023/02/05 07:14:04;;;;;;;26.90;12.70;;;;;;;-3.07;79.48;102351.06;131612;1283;23389;-79
2023/02/05 07:17:06;;;;;;;20.20;11.00;;;;;;;-2.82;79.45;102353.91;131143;1286;22592;-80
2023/02/05 07:20:07;;;;;;;19.00;10.10;;;;;;;-2.58;79.14;102359.40;130855;1288;22560;-78
2023/02/05 07:23:08;;;;;;;21.10;10.40;;;;;;;-2.44;78.74;102372.99;130906;1286;24301;-79
2023/02/05 07:26:11;;;;;;;19.70;10.50;;;;;;;-2.30;78.71;102376.72;130728;1288;24602;-77
2023/02/05 07:29:11;;;;;;;24.40;11.70;;;;;;;-2.16;78.49;102382.52;130569;1286;22681;-77
2023/02/05 07:32:12;;;;;;;19.30;9.80;;;;;;;-2.03;78.48;102386.63;130606;1286;23020;-78
2023/02/05 07:35:13;;;;;;;21.90;10.80;;;;;;;-1.96;78.12;102388.39;130502;1295;22591;-78
2023/02/05 07:38:13;;;;;;;16.50;10.50;;;;;;;-1.89;77.94;102384.59;130370;1293;22622;-78
2023/02/05 07:41:15;;;;;;;24.50;14.80;;;;;;;-1.92;77.44;102386.91;130714;1292;22775;-77
2023/02/05 07:44:16;;;;;;;22.20;12.40;;;;;;;-1.96;77.40;102383.52;130496;1286;22549;-78
2023/02/05 07:47:16;;;;;;;15.60;9.60;;;;;;;-1.98;77.12;102387.74;130441;1287;22600;-79
2023/02/05 07:50:17;;;;;;;13.70;8.40;;;;;;;-2.01;77.46;102388.83;130624;1285;25401;-78
2023/02/05 07:53:18;;;;;;;12.90;7.60;;;;;;;-2.00;76.95;102387.59;130695;1295;22563;-78
2023/02/05 07:56:22;;;;;;;15.80;8.30;;;;;;;-2.00;77.19;102390.36;130703;1285;25271;-78
2023/02/05 07:59:22;;;;;;;20.00;10.30;;;;;;;-1.95;76.76;102391.11;130631;1289;22577;-79
2023/02/05 08:02:23;;;;;;;14.90;8.60;;;;;;;-1.92;76.86;102394.54;130832;1287;22789;-79
2023/02/05 08:05:24;;;;;;;17.10;8.70;;;;;;;-1.84;76.82;102398.02;131065;1287;24266;-80
2023/02/05 08:08:25;;;;;;;13.80;8.50;;;;;;;-1.78;76.43;102396.35;130620;1286;22615;-77
2023/02/05 08:11:25;;;;;;;12.10;7.70;;;;;;;-1.74;76.33;102402.67;130884;1286;22719;-79
2023/02/05 08:14:26;;;;;;;15.00;9.00;;;;;;;-1.61;76.12;102392.67;130943;1288;22589;-78
2023/02/05 08:17:26;;;;;;;19.20;9.50;;;;;;;-1.34;76.29;102394.16;130541;1295;22609;-80
2023/02/05 08:20:27;;;;;;;14.90;9.70;;;;;;;-0.98;75.74;102392.80;130531;1288;25519;-79
2023/02/05 08:23:28;;;;;;;16.40;9.40;;;;;;;-0.65;75.69;102396.15;130458;1286;25294;-76
2023/02/05 08:26:28;;;;;;;16.80;9.10;;;;;;;-0.23;75.67;102393.34;130476;1289;24307;-79
2023/02/05 08:29:29;;;;;;;15.30;8.60;;;;;;;0.22;76.12;102392.23;130606;1293;22636;-78
2023/02/05 08:32:29;;;;;;;14.60;9.60;;;;;;;0.66;75.33;102393.85;130632;1286;26528;-78
2023/02/05 08:35:30;;;;;;;15.90;10.20;;;;;;;1.05;74.11;102391.42;130722;1292;25383;-80
2023/02/05 08:38:31;;;;;;;18.20;9.20;;;;;;;1.13;73.81;102392.04;131244;1286;25404;-81
2023/02/05 08:41:32;;;;;;;;;;;;;;;1.22;73.40;102392.43;130778;1292;22530;-79
2023/02/05 08:44:33;;;;;;;16.80;8.50;;;;;;;1.48;73.22;102397.67;130993;1286;22567;-79
2023/02/05 08:47:36;;;;;;;11.20;7.00;;;;;;;1.64;72.94;102400.95;130911;1286;24285;-81
2023/02/05 08:50:37;;;;;;;14.40;7.80;;;;;;;1.82;72.07;102400.29;130727;1285;22566;-81
2023/02/05 08:53:39;;;;;;;10.00;6.90;;;;;;;1.69;71.51;102403.38;131118;1295;22576;-83
2023/02/05 08:56:41;;;;;;;10.70;7.10;;;;;;;1.44;71.26;102403.35;131155;1285;24368;-81
2023/02/05 08:59:42;;;;;;;13.40;7.00;;;;;;;1.33;71.59;102404.45;131090;1292;22554;-82
2023/02/05 09:02:45;;;;;;;12.30;6.90;;;;;;;1.44;70.71;102401.63;131029;1289;22666;-82
2023/02/05 09:05:46;;;;;;;9.00;6.20;;;;;;;1.36;68.47;102403.29;130788;1295;22538;-82
2023/02/05 09:08:48;;;;;;;10.50;6.30;;;;;;;1.48;70.33;102404.44;130944;1293;22556;-85
2023/02/05 09:11:50;;;;;;;10.60;7.20;;;;;;;1.70;67.50;102403.17;130519;1292;25454;-83
2023/02/05 09:14:51;;;;;;;12.60;8.00;;;;;;;1.85;68.50;102407.54;130878;1292;23931;-81
2023/02/05 09:17:52;;;;;;;12.40;8.40;;;;;;;2.03;69.46;102400.41;130652;1295;22590;-82
2023/02/05 09:20:54;;;;;;;15.80;8.80;;;;;;;1.73;68.57;102396.77;130471;1294;25519;-83
2023/02/05 09:24:04;;;;;;;20.10;10.90;;;;;;;1.34;67.50;102391.65;131081;1293;22567;-80
2023/02/05 09:27:05;;;;;;;20.50;11.30;;;;;;;0.76;68.34;102391.45;131220;1296;22559;-84
2023/02/05 09:30:05;;;;;;;18.50;13.00;;;;;;;0.55;68.62;102387.92;131299;1293;22646;-80
2023/02/05 09:33:07;;;;;;;;;;;;;;;0.39;68.98;102390.66;131339;1286;22585;-80
2023/02/05 09:36:18;;;;;;;16.20;10.50;;;;;;;0.42;69.21;102388.31;131124;1278;25771;-81
2023/02/05 09:39:19;;;;;;;14.60;9.60;;;;;;;0.55;69.64;102384.27;131216;1280;23470;-80
2023/02/05 09:42:34;;;;;;;12.40;7.70;;;;;;;0.53;69.48;102376.86;131214;1295;22946;-81
2023/02/05 09:45:47;;;;;;;13.80;7.70;;;;;;;0.43;68.66;102376.11;131171;1298;23031;-80
2023/02/05 09:49:09;;;;;;;14.80;8.30;;;;;;;0.37;68.29;102380.61;131153;1293;22615;-79
2023/02/05 09:52:20;;;;;;;17.00;8.90;;;;;;;0.46;67.96;102378.64;131036;1289;22652;-80
2023/02/05 09:55:26;;;;;;;13.30;8.50;;;;;;;0.34;67.48;102380.21;131073;1289;22640;-81
2023/02/05 09:58:33;;;;;;;13.50;8.10;;;;;;;0.25;68.01;102373.50;131386;1293;24243;-81
2023/02/05 10:01:51;;;;;;;13.70;7.60;;;;;;;0.30;68.40;102372.48;130877;1293;22755;-85
2023/02/05 10:04:53;;;;;;;13.00;7.40;;;;;;;0.40;68.18;102372.39;130673;1292;25274;-79
2023/02/05 10:08:25;;;;;;;9.80;6.40;;;;;;;0.31;67.22;102368.09;130823;1285;22640;-82
2023/02/05 10:11:50;;;;;;;11.60;8.00;;;;;;;0.03;66.82;102366.32;131028;1286;24276;-84
2023/02/05 10:15:42;;;;;;;9.10;5.80;;;;;;;-0.27;67.73;102356.04;130161;1287;22980;-80
2023/02/05 10:19:44;;;;;;;8.90;4.10;;;;;;;-0.43;67.73;102351.25;129951;1294;22579;-80
2023/02/05 10:23:23;;;;;;;8.80;5.40;;;;;;;-0.69;66.12;102342.72;130131;1293;25575;-81
2023/02/05 10:27:08;;;;;;;6.90;4.60;;;;;;;-0.82;66.72;102340.11;130011;1295;24085;-78
2023/02/05 10:30:36;;;;;;;7.50;4.80;;;;;;;-0.84;67.32;102340.17;129850;1297;22679;-79
2023/02/05 10:33:54;;;;;;;6.70;3.90;;;;;;;-0.93;66.17;102335.17;129493;1305;22708;-80
2023/02/05 10:36:58;;;;;;;19.10;7.90;;;;;;;-1.02;66.77;102337.84;129854;1284;22658;-80
2023/02/05 10:40:11;;;;;;;8.00;4.30;;;;;;;-0.99;66.91;102333.05;129730;1294;24275;-79
2023/02/05 10:43:28;;;;;;;5.50;3.10;;;;;;;-0.99;65.83;102334.46;129940;1301;22576;-80
2023/02/05 10:46:33;;;;;;;5.70;3.50;;;;;;;-0.93;65.84;102328.39;130508;1295;22571;-80
2023/02/05 10:49:57;;;;;;;5.30;3.70;;;;;;;-0.96;65.15;102320.66;130844;1295;25479;-80
2023/02/05 10:52:57;;;;;;;4.30;2.90;;;;;;;-0.84;66.20;102324.52;131049;1294;23408;-79
2023/02/05 10:56:00;;;;;;;6.60;3.70;;;;;;;-0.67;65.94;102324.43;130838;1286;22586;-79
2023/02/05 10:59:03;;;;;;;5.50;4.00;;;;;;;-0.61;65.63;102322.36;131101;1295;22569;-80
2023/02/05 11:02:10;;;;;;;5.50;3.60;;;;;;;-0.52;66.26;102322.77;131082;1295;22570;-81
2023/02/05 11:05:25;;;;;;;7.70;4.40;;;;;;;-0.33;66.37;102320.54;130929;1294;25449;-79
2023/02/05 11:08:42;;;;;;;5.10;3.70;;;;;;;-0.25;66.18;102314.91;130640;1295;24298;-81
2023/02/05 11:11:54;;;;;;;4.60;3.20;;;;;;;-0.34;64.57;102306.29;130673;1295;22556;-80
2023/02/05 11:14:57;;;;;;;3.80;2.90;;;;;;;-0.44;65.16;102306.59;130801;1291;24303;-82
2023/02/05 11:18:02;;;;;;;6.40;2.90;;;;;;;-0.63;63.07;102306.92;130567;1295;22559;-80
2023/02/05 11:21:04;;;;;;;3.50;2.60;;;;;;;-0.88;63.10;102315.75;130857;1292;25045;-79
2023/02/05 11:24:05;;;;;;;4.50;2.90;;;;;;;-1.06;62.86;102318.46;130645;1291;22714;-79
2023/02/05 11:27:15;;;;;;;4.30;3.10;;;;;;;-1.06;64.08;102321.08;130775;1289;22638;-81
2023/02/05 11:30:34;;;;;;;6.40;3.10;;;;;;;-1.08;64.01;102327.21;131540;1295;22615;-79
2023/02/05 11:33:34;;;;;;;3.40;2.60;;;;;;;-1.06;64.32;102331.34;131487;1295;22674;-81
2023/02/05 11:36:37;;;;;;;7.00;4.00;;;;;;;-1.07;63.91;102336.57;131439;1289;24267;-80
2023/02/05 11:39:39;;;;;;;6.70;3.90;;;;;;;-1.07;64.25;102330.32;130778;1294;24237;-79
2023/02/05 11:42:46;;;;;;;12.30;4.80;;;;;;;-1.06;64.60;102328.55;130690;1295;22570;-80
2023/02/05 11:45:50;;;;;;;10.70;5.40;;;;;;;-1.09;63.73;102328.80;130996;1295;24283;-80
2023/02/05 11:49:03;;;;;;;6.70;5.30;;;;;;;-1.11;64.71;102329.36;130899;1289;25338;-80
2023/02/05 11:52:11;;;;;;;8.50;3.90;;;;;;;-1.05;64.71;102329.75;130999;1292;25530;-80
2023/02/05 11:55:33;;;;;;;4.80;3.80;;;;;;;-1.06;63.40;102328.38;131003;1286;23767;-81
2023/02/05 11:58:34;;;;;;;7.20;3.50;;;;;;;-1.12;64.20;102330.43;131026;1295;26637;-81
2023/02/05 12:01:35;;;;;;;7.60;4.40;;;;;;;-1.08;64.65;102329.64;131327;1294;22556;-82
2023/02/05 12:04:45;;;;;;;6.80;4.30;;;;;;;-1.02;65.04;102329.66;130927;1295;22569;-79
2023/02/05 12:07:55;;;;;;;6.30;4.20;;;;;;;-0.94;65.04;102332.42;130898;1291;22655;-80
2023/02/05 12:11:59;;;;;;;8.10;4.40;;;;;;;-0.90;64.61;102336.85;130845;1288;24336;-80
2023/02/05 12:15:15;;;;;;;18.70;9.80;;;;;;;-0.94;64.53;102327.02;130945;1286;22638;-80
2023/02/05 12:18:40;;;;;;;6.90;4.40;;;;;;;-0.91;64.96;102329.90;131351;1286;25516;-84
2023/02/05 12:21:47;;;;;;;11.10;5.30;;;;;;;-0.98;63.94;102326.08;130749;1288;25281;-79
2023/02/05 12:25:13;;;;;;;17.20;9.10;;;;;;;-1.06;64.59;102322.98;130444;1286;22567;-80
2023/02/05 12:28:16;;;;;;;5.70;4.10;;;;;;;-1.11;63.60;102326.08;130478;1286;25376;-79
2023/02/05 12:31:28;;;;;;;23.40;11.80;;;;;;;-1.18;64.03;102320.69;130527;1285;22566;-78
2023/02/05 12:34:52;;;;;;;7.60;3.80;;;;;;;-1.20;63.87;102312.23;130667;1292;24282;-80
2023/02/05 12:38:03;;;;;;;7.10;4.30;;;;;;;-1.17;64.29;102311.62;131034;1289;25369;-79
2023/02/05 12:41:25;;;;;;;24.60;13.40;;;;;;;-1.18;63.81;102308.85;130451;1285;26082;-78
2023/02/05 12:44:41;;;;;;;8.30;4.50;;;;;;;-1.19;64.32;102308.02;130933;1292;24557;-83
2023/02/05 12:48:05;;;;;;;19.10;12.40;;;;;;;-1.14;64.40;102305.28;131117;1288;22669;-79
2023/02/05 12:51:41;;;;;;;7.80;5.10;;;;;;;-1.07;64.46;102305.32;131032;1285;22579;-80
2023/02/05 12:54:41;;;;;;;7.30;4.20;;;;;;;-1.04;64.11;102299.81;130847;1285;25561;-81
2023/02/05 12:58:02;;;;;;;21.40;6.30;;;;;;;-0.97;64.67;102302.27;130851;1286;22598;-79
2023/02/05 13:01:11;;;;;;;9.20;4.30;;;;;;;-0.86;64.97;102306.32;131141;1287;24108;-80
2023/02/05 13:04:25;;;;;;;7.20;4.20;;;;;;;-0.79;64.64;102297.10;131130;1295;22848;-79
2023/02/05 13:07:37;;;;;;;9.90;4.80;;;;;;;-0.75;64.69;102297.67;131638;1292;22609;-81
2023/02/05 13:10:51;;;;;;;5.80;4.00;;;;;;;-0.77;64.56;102304.70;130915;1285;24280;-80
2023/02/05 13:14:10;;;;;;;12.90;4.80;;;;;;;-0.83;64.72;102307.99;131172;1293;22539;-80
2023/02/05 13:17:23;;;;;;;7.50;4.50;;;;;;;-0.80;64.82;102300.59;131198;1295;22629;-80
2023/02/05 13:31:22;;;;;;;7.00;4.00;;;;;;;-1.07;64.71;102311.72;130788;1289;22653;-84
2023/02/05 13:34:23;;;;;;;7.10;3.80;;;;;;;-1.06;64.80;102307.02;130545;1291;25507;-83
2023/02/05 13:38:09;;;;;;;7.60;4.70;;;;;;;-1.09;64.79;102304.83;130886;1292;22545;-83
2023/02/05 13:41:41;;;;;;;9.10;4.30;;;;;;;-1.09;64.74;102300.47;130752;1295;23313;-84
2023/02/05 13:45:19;;;;;;;10.70;4.60;;;;;;;-1.08;64.70;102292.81;131130;1292;25414;-82
2023/02/05 13:48:32;;;;;;;8.50;4.80;;;;;;;-1.09;64.67;102295.11;130932;1285;22690;-80
2023/02/05 13:52:11;;;;;;;9.70;4.70;;;;;;;-1.09;64.76;102291.79;130992;1286;24429;-81
2023/02/05 13:55:23;;;;;;;10.90;4.70;;;;;;;-1.06;64.98;102294.84;131101;1294;24234;-82
2023/02/05 13:58:28;;;;;;;6.60;4.40;;;;;;;-1.12;64.85;102294.48;131055;1291;22579;-81
2023/02/05 14:01:43;;;;;;;8.10;4.10;;;;;;;-1.16;64.72;102290.77;131046;1292;22576;-81
2023/02/05 14:04:52;;;;;;;9.20;5.10;;;;;;;-1.23;64.74;102293.54;130911;1285;24379;-81
2023/02/05 14:07:56;;;;;;;8.30;4.70;;;;;;;-1.29;64.85;102295.77;131068;1285;24211;-81
2023/02/05 14:11:01;;;;;;;10.50;5.90;;;;;;;-1.28;65.16;102296.11;131286;1286;26519;-81
2023/02/05 14:14:24;;;;;;;10.20;5.60;;;;;;;-1.27;65.19;102294.15;131021;1285;22572;-79
2023/02/05 14:17:27;;;;;;;9.60;5.40;;;;;;;-1.26;65.13;102289.95;131136;1288;24447;-80
2023/02/05 14:20:32;;;;;;;10.10;5.10;;;;;;;-1.21;65.40;102291.40;131125;1289;22641;-81
2023/02/05 14:23:45;;;;;;;10.40;5.70;;;;;;;-1.14;65.29;102291.56;131252;1285;23026;-81
2023/02/05 14:26:51;;;;;;;10.70;5.90;;;;;;;-1.08;65.31;102298.90;131101;1288;22557;-81
2023/02/05 14:29:52;;;;;;;10.30;5.20;;;;;;;-1.08;65.26;102293.86;131202;1287;22567;-82
2023/02/05 14:33:02;;;;;;;6.80;4.60;;;;;;;-1.10;65.11;102287.30;131340;1293;22658;-80